createdAt,value
2017-12-19T00:02:04.538Z,21.00
2017-12-19T00:04:32.683Z,19.00
2017-12-19T00:07:00.861Z,17.00
2017-12-19T00:09:29.766Z,16.73
2017-12-19T00:11:57.973Z,16.53
2017-12-19T00:14:26.123Z,14.80
2017-12-19T00:16:54.286Z,16.83
2017-12-19T00:19:23.187Z,17.70
2017-12-19T00:21:51.344Z,19.13
2017-12-19T00:24:20.347Z,18.87
2017-12-19T00:26:49.297Z,17.60
2017-12-19T00:29:17.444Z,16.30
2017-12-19T00:31:45.562Z,15.40
2017-12-19T00:34:13.721Z,18.67
2017-12-19T00:36:41.862Z,16.00
2017-12-19T00:39:10.025Z,16.93
2017-12-19T00:41:38.171Z,16.50
2017-12-19T00:44:07.078Z,18.67
2017-12-19T00:46:35.210Z,19.90
2017-12-19T00:49:03.625Z,18.17
2017-12-19T00:51:31.823Z,19.23
2017-12-19T00:53:59.990Z,18.43
2017-12-19T00:56:28.144Z,16.77
2017-12-19T00:58:57.063Z,22.10
2017-12-19T01:01:25.186Z,21.17
2017-12-19T01:03:53.334Z,19.37
2017-12-19T01:06:21.494Z,21.37
2017-12-19T01:08:49.694Z,24.53
2017-12-19T01:11:17.966Z,20.70
2017-12-19T01:13:46.113Z,18.80
2017-12-19T01:16:14.247Z,18.80
2017-12-19T01:18:43.190Z,20.90
2017-12-19T01:21:11.318Z,20.57
2017-12-19T01:23:40.238Z,24.53
2017-12-19T01:26:08.387Z,21.00
2017-12-19T01:28:37.306Z,18.10
2017-12-19T01:31:05.441Z,20.50
2017-12-19T01:33:34.398Z,18.80
2017-12-19T01:36:02.991Z,18.67
2017-12-19T01:38:31.110Z,21.70
2017-12-19T01:40:59.263Z,25.40
2017-12-19T01:43:28.158Z,23.40
2017-12-19T01:45:57.081Z,23.73
2017-12-19T01:48:25.206Z,25.73
2017-12-19T01:50:53.369Z,25.70
2017-12-19T01:53:21.490Z,24.97
2017-12-19T01:55:49.660Z,25.37
2017-12-19T01:58:17.790Z,28.60
2017-12-19T02:00:45.974Z,23.70
2017-12-19T02:03:14.105Z,23.07
2017-12-19T02:05:42.291Z,24.30
2017-12-19T02:08:10.426Z,26.70
2017-12-19T02:10:38.620Z,24.10
2017-12-19T02:13:06.760Z,22.77
2017-12-19T02:15:35.703Z,24.47
2017-12-19T02:18:03.855Z,24.87
2017-12-19T02:20:32.041Z,28.43
2017-12-19T02:23:00.152Z,27.13
2017-12-19T02:25:28.327Z,24.30
2017-12-19T02:27:56.458Z,26.63
2017-12-19T02:30:24.668Z,27.73
2017-12-19T02:32:53.609Z,31.20
2017-12-19T02:35:21.793Z,23.10
2017-12-19T02:37:49.960Z,23.83
2017-12-19T02:40:18.089Z,24.27
2017-12-19T02:42:58.778Z,27.90
2017-12-19T02:45:27.713Z,24.23
2017-12-19T02:47:55.835Z,23.80
2017-12-19T02:50:24.743Z,24.73
2017-12-19T02:52:52.918Z,26.33
2017-12-19T02:55:21.053Z,24.20
2017-12-19T02:57:49.206Z,26.00
2017-12-19T03:00:17.336Z,28.33
2017-12-19T03:02:45.505Z,27.17
2017-12-19T03:05:14.395Z,25.27
2017-12-19T03:07:43.324Z,22.60
2017-12-19T03:10:11.453Z,22.30
2017-12-19T03:12:39.676Z,27.77
2017-12-19T03:15:07.818Z,23.23
2017-12-19T03:17:35.979Z,26.23
2017-12-19T03:20:04.439Z,25.73
2017-12-19T03:22:33.399Z,25.53
2017-12-19T03:25:01.545Z,25.90
2017-12-19T03:27:29.710Z,27.63
2017-12-19T03:29:57.846Z,24.03
2017-12-19T03:32:25.998Z,23.83
2017-12-19T03:34:54.146Z,27.53
2017-12-19T03:37:22.322Z,27.93
2017-12-19T03:39:50.457Z,31.20
2017-12-19T03:42:19.369Z,31.63
2017-12-19T03:44:47.515Z,30.37
2017-12-19T03:47:16.458Z,32.17
2017-12-19T03:49:44.600Z,28.77
2017-12-19T03:52:13.552Z,35.50
2017-12-19T03:54:41.680Z,33.33
2017-12-19T03:57:09.849Z,32.93
2017-12-19T03:59:37.989Z,37.50
2017-12-19T04:02:06.190Z,31.93
2017-12-19T04:04:35.122Z,36.63
2017-12-19T04:07:03.262Z,33.93
2017-12-19T04:09:31.416Z,36.00
2017-12-19T04:12:00.319Z,39.80
2017-12-19T04:14:29.238Z,35.50
2017-12-19T04:16:57.396Z,34.97
2017-12-19T04:19:25.559Z,36.83
2017-12-19T04:21:53.694Z,31.93
2017-12-19T04:24:21.850Z,35.10
2017-12-19T04:26:49.991Z,34.30
2017-12-19T04:29:18.162Z,39.23
2017-12-19T04:31:46.275Z,37.80
2017-12-19T04:34:14.461Z,41.93
2017-12-19T04:36:42.602Z,41.13
2017-12-19T04:39:10.930Z,36.33
2017-12-19T04:41:39.083Z,39.77
2017-12-19T04:44:07.227Z,39.37
2017-12-19T04:46:35.345Z,39.77
2017-12-19T04:49:03.833Z,37.67
2017-12-19T04:51:32.194Z,34.67
2017-12-19T04:54:00.362Z,38.33
2017-12-19T04:56:28.486Z,38.80
2017-12-19T04:58:56.653Z,40.50
2017-12-19T05:01:25.659Z,41.93
2017-12-19T05:03:53.997Z,35.83
2017-12-19T05:06:22.150Z,39.50
2017-12-19T05:08:50.376Z,40.00
2017-12-19T05:11:18.533Z,42.33
2017-12-19T05:13:47.471Z,37.83
2017-12-19T05:16:15.626Z,37.50
2017-12-19T05:18:43.775Z,42.77
2017-12-19T05:21:12.677Z,42.93
2017-12-19T05:23:41.618Z,42.13
2017-12-19T05:26:09.742Z,36.53
2017-12-19T05:28:38.668Z,38.93
2017-12-19T05:31:06.853Z,42.43
2017-12-19T05:33:34.976Z,42.07
2017-12-19T05:36:03.909Z,40.47
2017-12-19T05:38:32.028Z,41.63
2017-12-19T05:41:00.177Z,44.80
2017-12-19T05:43:28.345Z,46.40
2017-12-19T05:45:57.687Z,38.07
2017-12-19T05:48:26.702Z,47.83
2017-12-19T05:50:54.869Z,40.17
2017-12-19T05:53:23.010Z,38.97
2017-12-19T05:55:51.968Z,41.97
2017-12-19T05:58:20.112Z,37.80
2017-12-19T06:00:48.266Z,43.97
2017-12-19T06:03:17.472Z,43.13
2017-12-19T06:05:45.641Z,43.53
2017-12-19T06:08:14.549Z,37.60
2017-12-19T06:10:43.918Z,40.47
2017-12-19T06:13:12.046Z,48.57
2017-12-19T06:15:40.214Z,42.07
2017-12-19T06:18:08.332Z,48.80
2017-12-19T06:20:36.486Z,48.43
2017-12-19T06:23:04.715Z,42.83
2017-12-19T06:25:32.878Z,46.57
2017-12-19T06:28:01.787Z,44.70
2017-12-19T06:30:31.138Z,46.10
2017-12-19T06:32:59.291Z,41.10
2017-12-19T06:35:27.465Z,47.23
2017-12-19T06:37:55.605Z,42.50
2017-12-19T06:40:23.758Z,44.87
2017-12-19T06:42:52.656Z,40.13
2017-12-19T06:45:21.607Z,50.97
2017-12-19T06:47:49.742Z,44.33
2017-12-19T06:50:17.898Z,40.10
2017-12-19T06:52:46.787Z,48.67
2017-12-19T06:55:14.954Z,43.10
2017-12-19T06:57:43.868Z,49.80
2017-12-19T07:00:12.160Z,47.73
2017-12-19T07:02:40.288Z,52.30
2017-12-19T07:05:09.182Z,53.60
2017-12-19T07:07:39.202Z,48.77
2017-12-19T07:10:08.099Z,44.57
2017-12-19T07:12:36.397Z,42.33
2017-12-19T07:15:04.734Z,43.97
2017-12-19T07:17:32.966Z,62.97
2017-12-19T07:20:02.125Z,56.07
2017-12-19T07:22:31.295Z,60.57
2017-12-19T07:24:59.460Z,63.73
2017-12-19T07:27:27.615Z,56.07
2017-12-19T07:29:55.762Z,56.23
2017-12-19T07:32:23.923Z,52.00
2017-12-19T07:34:52.824Z,50.17
2017-12-19T07:37:21.032Z,51.90
2017-12-19T07:39:49.202Z,52.47
2017-12-19T07:42:17.383Z,47.73
2017-12-19T07:44:46.334Z,48.50
2017-12-19T07:47:15.616Z,52.07
2017-12-19T07:49:43.743Z,47.63
2017-12-19T07:52:11.928Z,49.43
2017-12-19T07:54:40.094Z,50.27
2017-12-19T07:57:08.313Z,52.30
2017-12-19T07:59:36.474Z,50.47
2017-12-19T08:02:04.664Z,58.33
2017-12-19T08:04:32.833Z,56.23
2017-12-19T08:07:01.000Z,52.37
2017-12-19T08:09:29.131Z,51.53
2017-12-19T08:11:57.294Z,53.33
2017-12-19T08:14:25.491Z,57.27
2017-12-19T08:16:53.675Z,55.30
2017-12-19T08:19:21.839Z,50.40
2017-12-19T08:21:50.044Z,53.40
2017-12-19T08:24:18.197Z,55.30
2017-12-19T08:26:46.330Z,50.40
2017-12-19T08:29:15.256Z,47.40
2017-12-19T08:31:43.407Z,50.70
2017-12-19T08:34:11.578Z,50.07
2017-12-19T08:36:39.716Z,47.50
2017-12-19T08:39:07.926Z,48.17
2017-12-19T08:41:36.094Z,51.27
2017-12-19T08:44:04.534Z,39.93
2017-12-19T08:46:32.684Z,45.70
2017-12-19T08:49:00.833Z,47.90
2017-12-19T08:51:28.983Z,44.57
2017-12-19T08:53:57.953Z,48.37
2017-12-19T08:56:26.215Z,45.23
2017-12-19T08:58:54.361Z,51.03
2017-12-19T09:01:22.516Z,49.83
2017-12-19T09:03:50.679Z,47.83
2017-12-19T09:06:19.582Z,39.67
2017-12-19T09:08:47.747Z,44.43
2017-12-19T09:11:16.651Z,47.00
2017-12-19T09:13:44.856Z,45.70
2017-12-19T09:16:12.998Z,43.40
2017-12-19T09:18:41.184Z,37.60
2017-12-19T09:21:09.338Z,41.30
2017-12-19T09:23:37.547Z,40.60
2017-12-19T09:26:05.689Z,39.70
2017-12-19T09:28:33.850Z,40.93
2017-12-19T09:31:03.247Z,38.27
2017-12-19T09:33:31.402Z,32.70
2017-12-19T09:35:59.546Z,35.43
2017-12-19T09:38:27.712Z,38.23
2017-12-19T09:40:55.854Z,35.00
2017-12-19T09:43:24.765Z,31.37
2017-12-19T09:45:52.898Z,22.93
2017-12-19T09:48:21.082Z,27.90
2017-12-19T09:50:49.198Z,27.17
2017-12-19T09:53:17.359Z,31.57
2017-12-19T09:55:45.514Z,26.67
2017-12-19T09:58:13.700Z,24.20
2017-12-19T10:00:41.853Z,20.50
2017-12-19T10:03:10.768Z,24.57
2017-12-19T10:05:38.918Z,42.13
2017-12-19T10:08:07.810Z,36.30
2017-12-19T10:10:36.730Z,36.37
2017-12-19T10:13:04.858Z,39.70
2017-12-19T10:15:33.030Z,48.50
2017-12-19T10:18:01.154Z,52.00
2017-12-19T10:20:29.404Z,49.20
2017-12-19T10:22:57.546Z,41.97
2017-12-19T10:25:25.718Z,40.53
2017-12-19T10:27:53.845Z,44.20
2017-12-19T10:30:21.997Z,40.17
2017-12-19T10:32:50.892Z,40.10
2017-12-19T10:35:19.817Z,33.83
2017-12-19T10:37:48.015Z,25.87
2017-12-19T10:40:16.186Z,18.10
2017-12-19T10:42:44.314Z,17.70
2017-12-19T10:45:12.485Z,17.77
2017-12-19T10:47:41.361Z,27.40
2017-12-19T10:50:10.275Z,22.10
2017-12-19T10:52:38.406Z,23.87
2017-12-19T10:55:06.710Z,16.63
2017-12-19T10:57:35.597Z,13.83
2017-12-19T11:00:04.538Z,16.33
2017-12-19T11:02:37.570Z,14.23
2017-12-19T11:05:05.754Z,14.70
2017-12-19T11:07:34.645Z,17.20
2017-12-19T11:10:03.839Z,21.47
2017-12-19T11:12:32.759Z,17.40
2017-12-19T11:15:00.949Z,19.50
2017-12-19T11:17:29.109Z,14.77
2017-12-19T11:19:57.262Z,13.63
2017-12-19T11:22:25.386Z,18.50
2017-12-19T11:24:53.532Z,11.87
2017-12-19T11:27:21.662Z,12.63
2017-12-19T11:29:49.862Z,12.83
2017-12-19T11:32:18.135Z,11.63
2017-12-19T11:34:47.044Z,12.80
2017-12-19T11:37:15.180Z,11.37
2017-12-19T11:39:44.094Z,9.07
2017-12-19T11:42:12.214Z,9.50
2017-12-19T11:44:40.399Z,9.67
2017-12-19T11:47:08.532Z,9.90
2017-12-19T11:49:36.706Z,11.03
2017-12-19T11:52:04.856Z,8.93
2017-12-19T11:54:33.738Z,8.70
2017-12-19T11:57:02.658Z,12.77
2017-12-19T11:59:30.789Z,12.40
2017-12-19T12:01:59.733Z,10.30
2017-12-19T12:04:27.884Z,10.47
2017-12-19T12:06:56.048Z,7.90
2017-12-19T12:09:24.934Z,6.23
2017-12-19T12:11:53.838Z,7.53
2017-12-19T12:14:21.957Z,6.50
2017-12-19T12:16:50.104Z,4.80
2017-12-19T12:19:18.226Z,5.10
2017-12-19T12:21:46.370Z,2.97
2017-12-19T12:24:14.635Z,3.83
2017-12-19T12:26:42.782Z,3.60
2017-12-19T12:29:10.932Z,3.70
2017-12-19T12:31:39.861Z,5.93
2017-12-19T12:34:07.991Z,3.87
2017-12-19T12:36:37.206Z,4.47
2017-12-19T12:39:06.154Z,6.33
2017-12-19T12:41:34.430Z,3.60
2017-12-19T12:44:02.714Z,3.60
2017-12-19T12:46:30.860Z,5.33
2017-12-19T12:48:59.053Z,4.30
2017-12-19T12:51:27.204Z,3.50
2017-12-19T12:53:55.318Z,3.80
2017-12-19T12:56:23.512Z,4.70
2017-12-19T12:58:51.841Z,4.73
2017-12-19T13:01:19.997Z,5.73
2017-12-19T13:03:48.151Z,5.53
2017-12-19T13:06:17.082Z,4.57
2017-12-19T13:08:45.235Z,4.20
2017-12-19T13:11:13.366Z,5.23
2017-12-19T13:13:41.575Z,5.57
2017-12-19T13:16:09.800Z,4.50
2017-12-19T13:18:37.961Z,5.63
2017-12-19T13:21:06.101Z,5.10
2017-12-19T13:23:34.258Z,4.10
2017-12-19T13:26:02.660Z,5.03
2017-12-19T13:28:30.806Z,8.70
2017-12-19T13:30:59.702Z,3.60
2017-12-19T13:33:28.607Z,7.73
2017-12-19T13:35:56.830Z,4.90
2017-12-19T13:38:24.974Z,4.70
2017-12-19T13:40:53.098Z,5.37
2017-12-19T13:43:22.318Z,6.37
2017-12-19T13:45:50.470Z,4.27
2017-12-19T13:48:19.383Z,6.90
2017-12-19T13:50:47.504Z,5.10
2017-12-19T13:53:15.646Z,5.77
2017-12-19T13:55:43.995Z,7.87
2017-12-19T13:58:12.174Z,4.43
2017-12-19T14:00:40.312Z,4.90
2017-12-19T14:03:08.451Z,5.37
2017-12-19T14:05:36.577Z,4.67
2017-12-19T14:08:05.540Z,7.47
2017-12-19T14:10:33.672Z,6.27
2017-12-19T14:13:01.826Z,4.20
2017-12-19T14:15:30.718Z,4.57
2017-12-19T14:17:59.625Z,6.67
2017-12-19T14:20:27.742Z,4.33
2017-12-19T14:22:55.894Z,6.57
2017-12-19T14:25:24.026Z,5.17
2017-12-19T14:27:53.006Z,5.93
2017-12-19T14:30:21.149Z,5.63
2017-12-19T14:32:49.272Z,5.20
2017-12-19T14:35:18.177Z,9.50
2017-12-19T14:37:46.298Z,5.40
2017-12-19T14:40:14.429Z,5.80
2017-12-19T14:42:42.560Z,5.50
2017-12-19T14:45:10.718Z,7.63
2017-12-19T14:47:38.843Z,5.13
2017-12-19T14:50:06.991Z,8.83
2017-12-19T14:52:35.874Z,5.13
2017-12-19T14:55:04.014Z,6.17
2017-12-19T14:57:32.117Z,7.20
2017-12-19T15:00:00.259Z,7.17
2017-12-19T15:02:28.374Z,5.87
2017-12-19T15:04:57.984Z,12.67
2017-12-19T15:07:27.009Z,7.13
2017-12-19T15:09:56.029Z,8.93
2017-12-19T15:12:24.164Z,9.90
2017-12-19T15:14:52.313Z,5.80
2017-12-19T15:17:21.226Z,7.80
2017-12-19T15:19:49.376Z,9.90
2017-12-19T15:22:17.530Z,7.40
2017-12-19T15:24:45.675Z,4.83
2017-12-19T15:27:13.823Z,6.60
2017-12-19T15:29:41.979Z,8.30
2017-12-19T15:32:10.874Z,8.93
2017-12-19T15:34:39.807Z,6.50
2017-12-19T15:37:07.953Z,6.50
2017-12-19T15:39:36.274Z,5.07
2017-12-19T15:42:04.815Z,5.40
2017-12-19T15:44:33.111Z,5.40
2017-12-19T15:47:01.711Z,7.90
2017-12-19T15:49:30.783Z,5.53
2017-12-19T15:51:59.168Z,6.63
2017-12-19T15:54:27.438Z,5.77
2017-12-19T15:56:55.567Z,6.40
2017-12-19T15:59:24.033Z,6.53
2017-12-19T16:01:53.313Z,23.13
2017-12-19T16:04:21.552Z,8.10
2017-12-19T16:06:49.860Z,6.00
2017-12-19T16:09:18.009Z,6.50
2017-12-19T16:11:46.128Z,7.47
2017-12-19T16:14:14.251Z,7.17
2017-12-19T16:16:42.409Z,20.93
2017-12-19T16:19:11.463Z,9.57
2017-12-19T16:21:39.618Z,5.30
2017-12-19T16:24:07.848Z,6.10
2017-12-19T16:26:36.828Z,13.80
2017-12-19T16:29:05.734Z,8.10
2017-12-19T16:31:33.966Z,11.43
2017-12-19T16:34:03.650Z,12.00
2017-12-19T16:36:32.478Z,12.47
2017-12-19T16:39:01.429Z,9.60
2017-12-19T16:41:29.960Z,8.90
2017-12-19T16:43:58.098Z,7.90
2017-12-19T16:46:27.599Z,8.30
2017-12-19T16:48:55.718Z,12.80
2017-12-19T16:51:23.871Z,11.30
2017-12-19T16:53:52.009Z,16.93
2017-12-19T16:56:20.213Z,13.57
2017-12-19T16:58:49.163Z,12.07
2017-12-19T17:01:17.310Z,9.60
2017-12-19T17:03:45.616Z,12.23
2017-12-19T17:06:13.811Z,13.20
2017-12-19T17:08:41.930Z,9.07
2017-12-19T17:11:10.090Z,11.17
2017-12-19T17:13:38.214Z,19.70
2017-12-19T17:16:06.374Z,12.03
2017-12-19T17:18:35.265Z,10.10
2017-12-19T17:21:04.206Z,10.30
2017-12-19T17:23:32.342Z,11.93
2017-12-19T17:26:00.520Z,11.97
2017-12-19T17:28:28.660Z,13.93
2017-12-19T17:30:56.799Z,23.80
2017-12-19T17:33:24.966Z,20.30
2017-12-19T17:35:54.038Z,15.47
2017-12-19T17:38:22.200Z,14.30
2017-12-19T17:40:51.112Z,16.63
2017-12-19T17:43:19.457Z,19.27
2017-12-19T17:45:48.346Z,13.47
2017-12-19T17:48:16.497Z,13.77
2017-12-19T17:50:44.615Z,12.87
2017-12-19T17:53:12.773Z,13.27
2017-12-19T17:55:41.671Z,17.93
2017-12-19T17:58:10.586Z,14.03
2017-12-19T18:00:38.712Z,12.00
2017-12-19T18:03:07.936Z,16.20
2017-12-19T18:05:37.342Z,18.47
2017-12-19T18:08:05.710Z,20.90
2017-12-19T18:10:33.853Z,19.70
2017-12-19T18:13:02.517Z,28.40
2017-12-19T18:15:30.747Z,23.73
2017-12-19T18:17:59.764Z,26.77
2017-12-19T18:20:27.887Z,27.03
2017-12-19T18:22:56.065Z,23.23
2017-12-19T18:25:24.262Z,20.30
2017-12-19T18:27:53.178Z,22.73
2017-12-19T18:30:21.335Z,24.60
2017-12-19T18:32:50.502Z,38.33
2017-12-19T18:35:18.650Z,36.97
2017-12-19T18:37:46.794Z,34.13
2017-12-19T18:40:14.935Z,38.43
2017-12-19T18:42:43.107Z,37.47
2017-12-19T18:45:11.281Z,38.90
2017-12-19T18:47:39.417Z,38.50
2017-12-19T18:50:07.553Z,34.30
2017-12-19T18:52:35.709Z,37.97
2017-12-19T18:55:04.603Z,42.10
2017-12-19T18:57:33.522Z,49.40
2017-12-19T19:00:01.932Z,73.73
2017-12-19T19:02:30.156Z,72.20
2017-12-19T19:04:59.094Z,75.57
2017-12-19T19:07:27.253Z,44.20
2017-12-19T19:09:55.393Z,70.70
2017-12-19T19:12:24.284Z,50.40
2017-12-19T19:14:53.199Z,52.03
2017-12-19T19:17:21.354Z,40.57
2017-12-19T19:19:50.261Z,44.40
2017-12-19T19:22:18.392Z,43.30
2017-12-19T19:24:46.550Z,50.83
2017-12-19T19:27:14.678Z,38.13
2017-12-19T19:29:42.846Z,35.33
2017-12-19T19:32:10.977Z,40.13
2017-12-19T19:34:39.137Z,34.17
2017-12-19T19:37:07.286Z,50.77
2017-12-19T19:39:35.460Z,49.17
2017-12-19T19:42:03.737Z,44.70
2017-12-19T19:44:31.900Z,41.60
2017-12-19T19:47:00.039Z,39.33
2017-12-19T19:49:28.190Z,44.50
2017-12-19T19:51:56.326Z,39.80
2017-12-19T19:54:24.514Z,42.60
2017-12-19T19:56:53.274Z,39.70
2017-12-19T19:59:21.499Z,32.30
2017-12-19T20:01:49.821Z,34.23
2017-12-19T20:04:18.257Z,37.80
2017-12-19T20:06:46.646Z,46.60
2017-12-19T20:09:15.454Z,45.63
2017-12-19T20:11:44.387Z,44.00
2017-12-19T20:14:12.541Z,48.47
2017-12-19T20:16:40.745Z,38.90
2017-12-19T20:19:09.142Z,49.87
2017-12-19T20:21:37.390Z,45.27
2017-12-19T20:24:05.763Z,56.27
2017-12-19T20:26:34.734Z,55.73
2017-12-19T20:29:02.929Z,55.33
2017-12-19T20:31:31.069Z,61.40
2017-12-19T20:33:59.989Z,80.40
2017-12-19T20:36:28.107Z,92.00
2017-12-19T20:38:56.241Z,64.63
2017-12-19T20:41:24.382Z,63.77
2017-12-19T20:43:53.440Z,78.13
2017-12-19T20:46:22.489Z,69.93
2017-12-19T20:48:51.077Z,58.10
2017-12-19T20:51:19.508Z,59.87
2017-12-19T20:53:48.710Z,76.13
2017-12-19T20:56:16.878Z,44.60
2017-12-19T20:58:45.176Z,40.73
2017-12-19T21:01:13.386Z,42.60
2017-12-19T21:03:41.543Z,43.67
2017-12-19T21:06:09.747Z,48.63
2017-12-19T21:08:38.749Z,49.33
2017-12-19T21:11:06.878Z,45.03
2017-12-19T21:13:36.089Z,57.37
2017-12-19T21:16:04.212Z,49.57
2017-12-19T21:18:32.398Z,53.53
2017-12-19T21:21:03.519Z,47.80
2017-12-19T21:23:31.756Z,47.83
2017-12-19T21:26:00.170Z,47.20
2017-12-19T21:28:28.342Z,50.73
2017-12-19T21:30:56.512Z,44.63
2017-12-19T21:33:24.774Z,51.03
2017-12-19T21:35:52.932Z,37.97
2017-12-19T21:38:21.859Z,46.00
2017-12-19T21:40:49.986Z,50.33
2017-12-19T21:43:18.882Z,54.17
2017-12-19T21:45:48.115Z,67.70
2017-12-19T21:48:16.233Z,48.13
2017-12-19T21:50:44.394Z,50.90
2017-12-19T21:53:12.518Z,57.63
2017-12-19T21:55:40.743Z,59.30
2017-12-19T21:58:09.026Z,61.93
2017-12-19T22:00:37.180Z,52.70
2017-12-19T22:03:05.313Z,53.30
2017-12-19T22:05:33.456Z,52.20
2017-12-19T22:08:01.620Z,51.77
2017-12-19T22:10:29.788Z,58.27
2017-12-19T22:12:57.913Z,55.17
2017-12-19T22:15:26.063Z,64.93
2017-12-19T22:17:54.980Z,62.00
2017-12-19T22:20:23.124Z,60.50
2017-12-19T22:22:52.032Z,59.13
2017-12-19T22:25:20.188Z,59.47
2017-12-19T22:27:49.097Z,63.87
2017-12-19T22:30:17.243Z,68.77
2017-12-19T22:32:45.388Z,64.80
2017-12-19T22:35:13.579Z,63.07
2017-12-19T22:37:41.709Z,58.60
2017-12-19T22:43:09.680Z,45.27
2017-12-19T22:45:37.830Z,51.50
2017-12-19T22:48:06.719Z,57.00
2017-12-19T22:50:35.652Z,58.17
2017-12-19T22:53:04.146Z,55.50
2017-12-19T22:55:32.296Z,56.93
2017-12-19T22:58:00.427Z,67.80
2017-12-19T23:00:28.576Z,71.80
2017-12-19T23:02:56.711Z,61.80
2017-12-19T23:05:24.851Z,59.03
2017-12-19T23:07:53.738Z,62.87
2017-12-19T23:10:22.664Z,64.37
2017-12-19T23:12:50.779Z,66.47
2017-12-19T23:15:18.940Z,60.93
2017-12-19T23:17:47.067Z,60.83
2017-12-19T23:20:16.906Z,61.37
2017-12-19T23:22:45.027Z,66.20
2017-12-19T23:25:13.159Z,59.37
2017-12-19T23:27:41.291Z,62.00
2017-12-19T23:30:10.218Z,66.70
2017-12-19T23:32:38.355Z,53.33
2017-12-19T23:35:06.486Z,63.20
2017-12-19T23:37:34.611Z,57.77
2017-12-19T23:40:03.544Z,67.83
2017-12-19T23:42:31.665Z,61.77
2017-12-19T23:45:00.582Z,64.87
2017-12-19T23:47:28.707Z,62.77
2017-12-19T23:49:56.863Z,60.90
2017-12-19T23:52:25.000Z,55.03
2017-12-19T23:54:53.904Z,61.80
2017-12-19T23:57:22.037Z,56.37
2017-12-19T23:59:50.963Z,55.90
